Philadelphia, Pennsylvania
Traffic Map
Current Weather Conditions
Philadelphia, Pennsylvania
Scattered Clouds
Scattered Clouds
29°
Feels Like: 30°
Wind Chill: 29° Ceiling: Unl
Heat Index: 30° Visibility: 10mi
Dew Point: 18° Wind: 14mph
Humidity: 51% Direction: 180° (S)
Pressure: 30.08in Gusts: 0mph
Raw Report DataKPHL 302154Z 18012KT 10SM SCT050 29/18 A3008 RMK AO2 SLP184 T02890178
Traffic Incident Summary
Active as of:
Severity:
Category:
InformationThere was an issue retrieving the traffic information for this location. Please try a different location or try again shortly.
Advertisements
Track Severe Weather on mobile